sensor_id;sensor_type;location;lat;lon;timestamp;temperature;humidity
25024;DHT22;13033;50.936;5.334;2022-09-21T00:00:45;11.30;99.90
25024;DHT22;13033;50.936;5.334;2022-09-21T00:03:12;11.30;99.90
25024;DHT22;13033;50.936;5.334;2022-09-21T00:05:38;11.30;99.90
25024;DHT22;13033;50.936;5.334;2022-09-21T00:08:05;11.20;99.90
25024;DHT22;13033;50.936;5.334;2022-09-21T00:10:32;11.10;99.90
25024;DHT22;13033;50.936;5.334;2022-09-21T00:12:59;11.10;99.90
25024;DHT22;13033;50.936;5.334;2022-09-21T00:15:27;11.10;99.90
25024;DHT22;13033;50.936;5.334;2022-09-21T00:17:54;11.00;99.90
25024;DHT22;13033;50.936;5.334;2022-09-21T00:20:21;11.10;99.90
25024;DHT22;13033;50.936;5.334;2022-09-21T00:22:47;11.30;99.90
25024;DHT22;13033;50.936;5.334;2022-09-21T00:25:14;11.50;99.90
25024;DHT22;13033;50.936;5.334;2022-09-21T00:27:40;11.50;99.90
25024;DHT22;13033;50.936;5.334;2022-09-21T00:30:06;11.40;99.90
25024;DHT22;13033;50.936;5.334;2022-09-21T00:32:33;11.60;99.90
25024;DHT22;13033;50.936;5.334;2022-09-21T00:34:59;11.60;99.90
25024;DHT22;13033;50.936;5.334;2022-09-21T00:37:27;11.20;99.90
25024;DHT22;13033;50.936;5.334;2022-09-21T00:39:53;11.00;99.90
25024;DHT22;13033;50.936;5.334;2022-09-21T00:42:28;10.90;99.90
25024;DHT22;13033;50.936;5.334;2022-09-21T00:44:54;10.90;99.90
25024;DHT22;13033;50.936;5.334;2022-09-21T00:47:39;10.80;99.90
25024;DHT22;13033;50.936;5.334;2022-09-21T00:50:13;10.80;99.90
25024;DHT22;13033;50.936;5.334;2022-09-21T00:52:46;11.10;99.90
25024;DHT22;13033;50.936;5.334;2022-09-21T00:55:30;11.30;99.90
25024;DHT22;13033;50.936;5.334;2022-09-21T00:58:00;11.30;99.90
25024;DHT22;13033;50.936;5.334;2022-09-21T01:00:27;11.20;99.90
25024;DHT22;13033;50.936;5.334;2022-09-21T01:02:53;10.90;99.90
25024;DHT22;13033;50.936;5.334;2022-09-21T01:05:26;11.00;99.90
25024;DHT22;13033;50.936;5.334;2022-09-21T01:07:52;11.00;99.90
25024;DHT22;13033;50.936;5.334;2022-09-21T01:10:19;11.00;99.90
25024;DHT22;13033;50.936;5.334;2022-09-21T01:18:21;10.60;99.90
25024;DHT22;13033;50.936;5.334;2022-09-21T01:21:10;10.50;99.90
25024;DHT22;13033;50.936;5.334;2022-09-21T01:26:15;10.40;99.90
25024;DHT22;13033;50.936;5.334;2022-09-21T01:31:23;10.40;99.90
25024;DHT22;13033;50.936;5.334;2022-09-21T01:33:54;10.50;99.90
25024;DHT22;13033;50.936;5.334;2022-09-21T01:36:25;10.40;99.90
25024;DHT22;13033;50.936;5.334;2022-09-21T01:38:57;10.20;99.90
25024;DHT22;13033;50.936;5.334;2022-09-21T01:41:26;10.50;99.90
25024;DHT22;13033;50.936;5.334;2022-09-21T01:43:56;10.70;99.90
25024;DHT22;13033;50.936;5.334;2022-09-21T01:46:28;10.70;99.90
25024;DHT22;13033;50.936;5.334;2022-09-21T01:48:59;10.50;99.90
25024;DHT22;13033;50.936;5.334;2022-09-21T01:51:30;10.40;99.90
25024;DHT22;13033;50.936;5.334;2022-09-21T01:54:08;10.10;99.90
25024;DHT22;13033;50.936;5.334;2022-09-21T01:56:40;10.00;99.90
25024;DHT22;13033;50.936;5.334;2022-09-21T02:02:16;10.10;99.90
25024;DHT22;13033;50.936;5.334;2022-09-21T02:04:43;10.00;99.90
25024;DHT22;13033;50.936;5.334;2022-09-21T02:07:09;10.00;99.90
25024;DHT22;13033;50.936;5.334;2022-09-21T02:09:35;10.00;99.90
25024;DHT22;13033;50.936;5.334;2022-09-21T02:12:02;10.20;99.90
25024;DHT22;13033;50.936;5.334;2022-09-21T02:14:29;10.40;99.90
25024;DHT22;13033;50.936;5.334;2022-09-21T02:20:08;10.60;99.90
25024;DHT22;13033;50.936;5.334;2022-09-21T02:25:58;10.40;99.90
25024;DHT22;13033;50.936;5.334;2022-09-21T02:31:38;9.90;99.90
25024;DHT22;13033;50.936;5.334;2022-09-21T02:34:24;9.80;99.90
25024;DHT22;13033;50.936;5.334;2022-09-21T02:36:56;9.80;99.90
25024;DHT22;13033;50.936;5.334;2022-09-21T02:39:47;9.80;99.90
25024;DHT22;13033;50.936;5.334;2022-09-21T02:42:23;9.90;99.90
25024;DHT22;13033;50.936;5.334;2022-09-21T02:45:16;10.00;99.90
25024;DHT22;13033;50.936;5.334;2022-09-21T02:47:56;10.30;99.90
25024;DHT22;13033;50.936;5.334;2022-09-21T02:50:52;10.50;99.90
25024;DHT22;13033;50.936;5.334;2022-09-21T02:53:26;10.60;99.90
25024;DHT22;13033;50.936;5.334;2022-09-21T02:55:54;10.50;99.90
25024;DHT22;13033;50.936;5.334;2022-09-21T02:58:21;10.50;99.90
25024;DHT22;13033;50.936;5.334;2022-09-21T03:00:48;10.10;99.90
25024;DHT22;13033;50.936;5.334;2022-09-21T03:03:19;10.00;99.90
25024;DHT22;13033;50.936;5.334;2022-09-21T03:05:47;9.90;99.90
25024;DHT22;13033;50.936;5.334;2022-09-21T03:08:14;9.90;99.90
25024;DHT22;13033;50.936;5.334;2022-09-21T03:10:40;10.10;99.90
25024;DHT22;13033;50.936;5.334;2022-09-21T03:13:09;10.10;99.90
25024;DHT22;13033;50.936;5.334;2022-09-21T03:15:39;10.00;99.90
25024;DHT22;13033;50.936;5.334;2022-09-21T03:18:06;9.90;99.90
25024;DHT22;13033;50.936;5.334;2022-09-21T03:20:34;9.90;99.90
25024;DHT22;13033;50.936;5.334;2022-09-21T03:23:00;9.70;99.90
25024;DHT22;13033;50.936;5.334;2022-09-21T03:25:28;9.70;99.90
25024;DHT22;13033;50.936;5.334;2022-09-21T03:27:55;9.80;99.90
25024;DHT22;13033;50.936;5.334;2022-09-21T03:30:22;9.80;99.90
25024;DHT22;13033;50.936;5.334;2022-09-21T03:32:52;9.70;99.90
25024;DHT22;13033;50.936;5.334;2022-09-21T03:35:18;9.30;99.90
25024;DHT22;13033;50.936;5.334;2022-09-21T03:37:44;9.40;99.90
25024;DHT22;13033;50.936;5.334;2022-09-21T03:40:10;9.50;99.90
25024;DHT22;13033;50.936;5.334;2022-09-21T03:42:37;9.50;99.90
25024;DHT22;13033;50.936;5.334;2022-09-21T03:45:04;9.70;99.90
25024;DHT22;13033;50.936;5.334;2022-09-21T03:47:30;9.80;99.90
25024;DHT22;13033;50.936;5.334;2022-09-21T03:49:55;9.80;99.90
25024;DHT22;13033;50.936;5.334;2022-09-21T03:52:21;9.70;99.90
25024;DHT22;13033;50.936;5.334;2022-09-21T03:54:47;9.50;99.90
25024;DHT22;13033;50.936;5.334;2022-09-21T03:57:14;9.50;99.90
25024;DHT22;13033;50.936;5.334;2022-09-21T03:59:39;9.40;99.90
25024;DHT22;13033;50.936;5.334;2022-09-21T04:02:05;9.50;99.90
25024;DHT22;13033;50.936;5.334;2022-09-21T04:04:31;9.60;99.90
25024;DHT22;13033;50.936;5.334;2022-09-21T04:06:57;9.50;99.90
25024;DHT22;13033;50.936;5.334;2022-09-21T04:09:23;9.50;99.90
25024;DHT22;13033;50.936;5.334;2022-09-21T04:11:49;9.30;99.90
25024;DHT22;13033;50.936;5.334;2022-09-21T04:14:15;9.30;99.90
25024;DHT22;13033;50.936;5.334;2022-09-21T04:16:41;9.40;99.90
25024;DHT22;13033;50.936;5.334;2022-09-21T04:19:06;9.60;99.90
25024;DHT22;13033;50.936;5.334;2022-09-21T04:21:32;9.90;98.00
25024;DHT22;13033;50.936;5.334;2022-09-21T04:23:58;10.10;94.40
25024;DHT22;13033;50.936;5.334;2022-09-21T04:26:25;10.20;92.60
25024;DHT22;13033;50.936;5.334;2022-09-21T04:28:52;10.00;93.20
25024;DHT22;13033;50.936;5.334;2022-09-21T04:31:18;9.90;95.80
25024;DHT22;13033;50.936;5.334;2022-09-21T04:33:48;9.60;98.50
25024;DHT22;13033;50.936;5.334;2022-09-21T04:36:15;9.90;99.20
25024;DHT22;13033;50.936;5.334;2022-09-21T04:38:40;10.00;97.60
25024;DHT22;13033;50.936;5.334;2022-09-21T04:41:06;10.00;96.20
25024;DHT22;13033;50.936;5.334;2022-09-21T04:43:32;9.90;97.90
25024;DHT22;13033;50.936;5.334;2022-09-21T04:45:57;10.10;96.10
25024;DHT22;13033;50.936;5.334;2022-09-21T04:48:23;10.30;93.10
25024;DHT22;13033;50.936;5.334;2022-09-21T04:50:49;10.30;92.30
25024;DHT22;13033;50.936;5.334;2022-09-21T04:53:15;10.20;92.30
25024;DHT22;13033;50.936;5.334;2022-09-21T04:55:41;10.00;93.40
25024;DHT22;13033;50.936;5.334;2022-09-21T04:58:07;9.90;96.60
25024;DHT22;13033;50.936;5.334;2022-09-21T05:00:32;10.10;95.90
25024;DHT22;13033;50.936;5.334;2022-09-21T05:02:58;10.20;93.20
25024;DHT22;13033;50.936;5.334;2022-09-21T05:05:24;10.10;93.40
25024;DHT22;13033;50.936;5.334;2022-09-21T05:07:49;9.90;94.00
25024;DHT22;13033;50.936;5.334;2022-09-21T05:10:15;9.30;99.60
25024;DHT22;13033;50.936;5.334;2022-09-21T05:12:40;9.40;99.90
25024;DHT22;13033;50.936;5.334;2022-09-21T05:15:08;9.50;99.90
25024;DHT22;13033;50.936;5.334;2022-09-21T05:17:36;9.20;99.90
25024;DHT22;13033;50.936;5.334;2022-09-21T05:20:02;9.50;99.90
25024;DHT22;13033;50.936;5.334;2022-09-21T05:22:28;9.80;99.90
25024;DHT22;13033;50.936;5.334;2022-09-21T05:24:53;10.00;99.00
25024;DHT22;13033;50.936;5.334;2022-09-21T05:27:20;9.90;99.60
25024;DHT22;13033;50.936;5.334;2022-09-21T05:29:46;10.00;99.50
25024;DHT22;13033;50.936;5.334;2022-09-21T05:32:29;10.20;98.70
25024;DHT22;13033;50.936;5.334;2022-09-21T05:35:08;10.30;96.70
25024;DHT22;13033;50.936;5.334;2022-09-21T05:38:00;10.40;95.60
25024;DHT22;13033;50.936;5.334;2022-09-21T05:40:29;9.80;99.70
25024;DHT22;13033;50.936;5.334;2022-09-21T05:42:55;9.60;99.90
25024;DHT22;13033;50.936;5.334;2022-09-21T05:45:21;9.50;99.90
25024;DHT22;13033;50.936;5.334;2022-09-21T05:48:22;9.80;99.90
25024;DHT22;13033;50.936;5.334;2022-09-21T05:53:57;10.30;99.90
25024;DHT22;13033;50.936;5.334;2022-09-21T06:02:17;10.70;95.90
25024;DHT22;13033;50.936;5.334;2022-09-21T06:04:46;10.80;93.50
25024;DHT22;13033;50.936;5.334;2022-09-21T06:07:13;10.80;91.40
25024;DHT22;13033;50.936;5.334;2022-09-21T06:09:39;10.70;92.20
25024;DHT22;13033;50.936;5.334;2022-09-21T06:12:05;10.50;94.90
25024;DHT22;13033;50.936;5.334;2022-09-21T06:14:31;10.40;98.30
25024;DHT22;13033;50.936;5.334;2022-09-21T06:16:56;10.40;98.60
25024;DHT22;13033;50.936;5.334;2022-09-21T06:19:22;10.60;96.10
25024;DHT22;13033;50.936;5.334;2022-09-21T06:21:47;10.40;97.90
25024;DHT22;13033;50.936;5.334;2022-09-21T06:24:13;10.20;99.90
25024;DHT22;13033;50.936;5.334;2022-09-21T06:26:39;10.40;99.90
25024;DHT22;13033;50.936;5.334;2022-09-21T06:29:04;10.60;99.20
25024;DHT22;13033;50.936;5.334;2022-09-21T06:31:31;10.70;97.00
25024;DHT22;13033;50.936;5.334;2022-09-21T06:33:57;10.40;98.80
25024;DHT22;13033;50.936;5.334;2022-09-21T06:36:23;10.10;99.90
25024;DHT22;13033;50.936;5.334;2022-09-21T06:38:48;9.80;99.90
25024;DHT22;13033;50.936;5.334;2022-09-21T06:41:14;10.20;99.90
25024;DHT22;13033;50.936;5.334;2022-09-21T06:43:40;10.30;99.90
25024;DHT22;13033;50.936;5.334;2022-09-21T06:46:06;10.50;99.90
25024;DHT22;13033;50.936;5.334;2022-09-21T06:48:33;10.30;99.90
25024;DHT22;13033;50.936;5.334;2022-09-21T06:50:59;10.60;99.90
25024;DHT22;13033;50.936;5.334;2022-09-21T06:53:26;10.90;99.90
25024;DHT22;13033;50.936;5.334;2022-09-21T06:55:52;11.20;98.60
25024;DHT22;13033;50.936;5.334;2022-09-21T06:58:18;11.50;93.50
25024;DHT22;13033;50.936;5.334;2022-09-21T07:00:44;11.40;93.50
25024;DHT22;13033;50.936;5.334;2022-09-21T07:03:10;11.40;94.30
25024;DHT22;13033;50.936;5.334;2022-09-21T07:05:38;11.60;91.60
25024;DHT22;13033;50.936;5.334;2022-09-21T07:08:04;11.70;91.20
25024;DHT22;13033;50.936;5.334;2022-09-21T07:10:30;11.70;90.40
25024;DHT22;13033;50.936;5.334;2022-09-21T07:13:02;11.60;92.20
25024;DHT22;13033;50.936;5.334;2022-09-21T07:15:28;11.50;95.10
25024;DHT22;13033;50.936;5.334;2022-09-21T07:17:54;11.80;93.60
25024;DHT22;13033;50.936;5.334;2022-09-21T07:20:21;11.90;90.50
25024;DHT22;13033;50.936;5.334;2022-09-21T07:22:47;12.10;89.00
25024;DHT22;13033;50.936;5.334;2022-09-21T07:25:12;12.10;90.60
25024;DHT22;13033;50.936;5.334;2022-09-21T07:27:39;11.60;93.40
25024;DHT22;13033;50.936;5.334;2022-09-21T07:30:06;11.60;96.60
25024;DHT22;13033;50.936;5.334;2022-09-21T07:32:32;12.00;93.90
25024;DHT22;13033;50.936;5.334;2022-09-21T07:34:57;12.40;82.20
25024;DHT22;13033;50.936;5.334;2022-09-21T07:37:24;12.60;74.10
25024;DHT22;13033;50.936;5.334;2022-09-21T07:39:50;12.70;73.50
25024;DHT22;13033;50.936;5.334;2022-09-21T07:42:17;12.70;79.30
25024;DHT22;13033;50.936;5.334;2022-09-21T07:44:47;12.90;79.90
25024;DHT22;13033;50.936;5.334;2022-09-21T07:47:13;12.50;76.40
25024;DHT22;13033;50.936;5.334;2022-09-21T07:49:39;12.60;79.80
25024;DHT22;13033;50.936;5.334;2022-09-21T07:52:06;12.60;72.20
25024;DHT22;13033;50.936;5.334;2022-09-21T07:54:33;12.50;83.70
25024;DHT22;13033;50.936;5.334;2022-09-21T07:56:59;12.90;75.50
25024;DHT22;13033;50.936;5.334;2022-09-21T07:59:44;13.10;72.10
25024;DHT22;13033;50.936;5.334;2022-09-21T08:02:10;13.10;69.00
25024;DHT22;13033;50.936;5.334;2022-09-21T08:04:36;13.30;64.90
25024;DHT22;13033;50.936;5.334;2022-09-21T08:07:02;13.60;61.10
25024;DHT22;13033;50.936;5.334;2022-09-21T08:09:27;13.80;52.90
25024;DHT22;13033;50.936;5.334;2022-09-21T08:11:53;14.10;38.00
25024;DHT22;13033;50.936;5.334;2022-09-21T08:14:20;14.30;33.00
25024;DHT22;13033;50.936;5.334;2022-09-21T08:16:46;14.40;31.90
25024;DHT22;13033;50.936;5.334;2022-09-21T08:19:15;14.30;27.20
25024;DHT22;13033;50.936;5.334;2022-09-21T08:21:42;14.70;19.80
25024;DHT22;13033;50.936;5.334;2022-09-21T08:24:08;14.80;14.50
25024;DHT22;13033;50.936;5.334;2022-09-21T08:26:34;14.80;14.20
25024;DHT22;13033;50.936;5.334;2022-09-21T08:29:00;14.80;25.80
25024;DHT22;13033;50.936;5.334;2022-09-21T08:31:26;14.80;29.70
25024;DHT22;13033;50.936;5.334;2022-09-21T08:33:53;14.90;28.90
25024;DHT22;13033;50.936;5.334;2022-09-21T08:36:19;14.50;36.60
25024;DHT22;13033;50.936;5.334;2022-09-21T08:38:45;14.40;42.90
25024;DHT22;13033;50.936;5.334;2022-09-21T08:41:17;14.30;48.20
25024;DHT22;13033;50.936;5.334;2022-09-21T08:43:51;14.30;50.30
25024;DHT22;13033;50.936;5.334;2022-09-21T08:46:20;14.50;38.70
25024;DHT22;13033;50.936;5.334;2022-09-21T08:51:23;14.80;29.30
25024;DHT22;13033;50.936;5.334;2022-09-21T08:53:54;14.90;21.50
25024;DHT22;13033;50.936;5.334;2022-09-21T08:56:23;14.70;33.00
25024;DHT22;13033;50.936;5.334;2022-09-21T08:58:50;15.20;19.70
25024;DHT22;13033;50.936;5.334;2022-09-21T09:11:56;15.70;5.40
25024;DHT22;13033;50.936;5.334;2022-09-21T09:19:47;15.70;1.70
25024;DHT22;13033;50.936;5.334;2022-09-21T09:22:18;15.90;1.00
25024;DHT22;13033;50.936;5.334;2022-09-21T09:24:49;16.00;1.00
25024;DHT22;13033;50.936;5.334;2022-09-21T09:27:22;15.80;1.00
25024;DHT22;13033;50.936;5.334;2022-09-21T09:32:18;16.20;1.00
25024;DHT22;13033;50.936;5.334;2022-09-21T09:35:27;16.30;1.00
25024;DHT22;13033;50.936;5.334;2022-09-21T09:51:34;16.30;1.00
25024;DHT22;13033;50.936;5.334;2022-09-21T09:54:01;16.70;1.00
25024;DHT22;13033;50.936;5.334;2022-09-21T09:56:30;16.80;1.00
25024;DHT22;13033;50.936;5.334;2022-09-21T09:58:59;17.00;1.00
25024;DHT22;13033;50.936;5.334;2022-09-21T10:01:45;17.20;1.00
25024;DHT22;13033;50.936;5.334;2022-09-21T10:04:14;16.80;1.00
25024;DHT22;13033;50.936;5.334;2022-09-21T10:06:40;16.60;1.00
25024;DHT22;13033;50.936;5.334;2022-09-21T10:09:28;16.50;1.00
25024;DHT22;13033;50.936;5.334;2022-09-21T10:12:19;16.60;1.00
25024;DHT22;13033;50.936;5.334;2022-09-21T10:14:51;16.50;1.00
25024;DHT22;13033;50.936;5.334;2022-09-21T10:17:18;16.30;1.00
25024;DHT22;13033;50.936;5.334;2022-09-21T10:19:44;16.60;1.00
25024;DHT22;13033;50.936;5.334;2022-09-21T10:22:17;16.90;1.00
25024;DHT22;13033;50.936;5.334;2022-09-21T10:24:52;17.30;1.00
25024;DHT22;13033;50.936;5.334;2022-09-21T10:27:26;17.80;1.00
25024;DHT22;13033;50.936;5.334;2022-09-21T10:29:52;18.10;99.90
25024;DHT22;13033;50.936;5.334;2022-09-21T10:32:26;18.30;99.90
25024;DHT22;13033;50.936;5.334;2022-09-21T10:37:34;18.30;99.90
25024;DHT22;13033;50.936;5.334;2022-09-21T10:42:48;18.40;99.90
25024;DHT22;13033;50.936;5.334;2022-09-21T10:45:23;18.00;99.90
25024;DHT22;13033;50.936;5.334;2022-09-21T10:50:40;18.60;64.40
25024;DHT22;13033;50.936;5.334;2022-09-21T10:55:40;19.20;99.90
25024;DHT22;13033;50.936;5.334;2022-09-21T10:58:10;19.30;99.90
25024;DHT22;13033;50.936;5.334;2022-09-21T11:00:44;19.20;99.90
25024;DHT22;13033;50.936;5.334;2022-09-21T11:03:35;19.20;99.90
25024;DHT22;13033;50.936;5.334;2022-09-21T11:06:17;18.90;99.90
25024;DHT22;13033;50.936;5.334;2022-09-21T11:11:42;19.10;99.90
25024;DHT22;13033;50.936;5.334;2022-09-21T11:14:19;18.70;87.60
25024;DHT22;13033;50.936;5.334;2022-09-21T11:19:53;18.20;99.90
25024;DHT22;13033;50.936;5.334;2022-09-21T11:22:33;18.60;99.90
25024;DHT22;13033;50.936;5.334;2022-09-21T11:30:41;18.40;99.90
25024;DHT22;13033;50.936;5.334;2022-09-21T11:39:36;18.30;99.90
25024;DHT22;13033;50.936;5.334;2022-09-21T11:44:52;18.50;99.90
25024;DHT22;13033;50.936;5.334;2022-09-21T11:58:05;18.60;99.90
25024;DHT22;13033;50.936;5.334;2022-09-21T12:09:06;18.80;99.90
25024;DHT22;13033;50.936;5.334;2022-09-21T12:11:48;18.30;95.90
25024;DHT22;13033;50.936;5.334;2022-09-21T12:14:25;18.40;99.90
25024;DHT22;13033;50.936;5.334;2022-09-21T12:17:36;18.30;12.80
25024;DHT22;13033;50.936;5.334;2022-09-21T12:19:45;18.40;91.00
25024;DHT22;13033;50.936;5.334;2022-09-21T12:22:28;18.50;1.00
25024;DHT22;13033;50.936;5.334;2022-09-21T12:24:59;18.60;99.90
25024;DHT22;13033;50.936;5.334;2022-09-21T12:27:28;18.70;99.90
25024;DHT22;13033;50.936;5.334;2022-09-21T12:30:05;18.80;99.90
25024;DHT22;13033;50.936;5.334;2022-09-21T12:33:00;19.10;99.90
25024;DHT22;13033;50.936;5.334;2022-09-21T12:35:31;19.40;91.60
25024;DHT22;13033;50.936;5.334;2022-09-21T12:38:12;19.70;1.00
25024;DHT22;13033;50.936;5.334;2022-09-21T12:41:10;19.80;1.00
25024;DHT22;13033;50.936;5.334;2022-09-21T12:46:44;19.80;99.90
25024;DHT22;13033;50.936;5.334;2022-09-21T12:49:25;19.60;99.00
25024;DHT22;13033;50.936;5.334;2022-09-21T12:51:59;19.70;1.00
25024;DHT22;13033;50.936;5.334;2022-09-21T12:54:47;19.80;99.90
25024;DHT22;13033;50.936;5.334;2022-09-21T13:02:45;20.50;99.90
25024;DHT22;13033;50.936;5.334;2022-09-21T13:08:23;20.60;99.90
25024;DHT22;13033;50.936;5.334;2022-09-21T13:13:27;20.40;99.90
25024;DHT22;13033;50.936;5.334;2022-09-21T13:15:54;20.30;1.00
25024;DHT22;13033;50.936;5.334;2022-09-21T13:18:35;20.20;99.90
25024;DHT22;13033;50.936;5.334;2022-09-21T13:21:23;20.10;9.30
25024;DHT22;13033;50.936;5.334;2022-09-21T13:23:55;20.40;99.90
25024;DHT22;13033;50.936;5.334;2022-09-21T13:26:42;20.50;1.00
25024;DHT22;13033;50.936;5.334;2022-09-21T13:31:56;20.80;1.00
25024;DHT22;13033;50.936;5.334;2022-09-21T13:34:37;20.90;1.00
25024;DHT22;13033;50.936;5.334;2022-09-21T13:39:36;21.30;1.00
25024;DHT22;13033;50.936;5.334;2022-09-21T13:44:58;21.60;52.00
25024;DHT22;13033;50.936;5.334;2022-09-21T13:47:38;21.50;99.90
25024;DHT22;13033;50.936;5.334;2022-09-21T13:50:24;21.40;1.00
25024;DHT22;13033;50.936;5.334;2022-09-21T13:52:53;20.80;99.90
25024;DHT22;13033;50.936;5.334;2022-09-21T13:55:34;20.60;99.90
25024;DHT22;13033;50.936;5.334;2022-09-21T13:58:24;20.40;99.90
25024;DHT22;13033;50.936;5.334;2022-09-21T14:00:53;20.10;99.90
25024;DHT22;13033;50.936;5.334;2022-09-21T14:03:38;19.80;99.90
25024;DHT22;13033;50.936;5.334;2022-09-21T14:06:08;19.80;1.00
25024;DHT22;13033;50.936;5.334;2022-09-21T14:08:48;19.80;99.90
25024;DHT22;13033;50.936;5.334;2022-09-21T14:11:39;19.60;99.90
25024;DHT22;13033;50.936;5.334;2022-09-21T14:16:59;19.70;99.90
25024;DHT22;13033;50.936;5.334;2022-09-21T14:24:35;20.40;99.90
25024;DHT22;13033;50.936;5.334;2022-09-21T14:27:27;20.10;1.00
25024;DHT22;13033;50.936;5.334;2022-09-21T14:30:04;20.10;1.00
25024;DHT22;13033;50.936;5.334;2022-09-21T14:32:41;20.20;99.90
25024;DHT22;13033;50.936;5.334;2022-09-21T14:35:14;20.30;99.90
25024;DHT22;13033;50.936;5.334;2022-09-21T14:37:52;20.10;99.90
25024;DHT22;13033;50.936;5.334;2022-09-21T14:40:26;20.50;99.90
25024;DHT22;13033;50.936;5.334;2022-09-21T14:42:55;21.80;99.90
25024;DHT22;13033;50.936;5.334;2022-09-21T14:45:50;23.30;1.00
25024;DHT22;13033;50.936;5.334;2022-09-21T14:54:51;26.00;98.70
25024;DHT22;13033;50.936;5.334;2022-09-21T15:00:24;27.00;1.00
25024;DHT22;13033;50.936;5.334;2022-09-21T15:05:47;27.10;1.00
25024;DHT22;13033;50.936;5.334;2022-09-21T15:08:45;26.90;1.00
25024;DHT22;13033;50.936;5.334;2022-09-21T15:11:43;26.70;1.00
25024;DHT22;13033;50.936;5.334;2022-09-21T15:14:36;26.50;1.00
25024;DHT22;13033;50.936;5.334;2022-09-21T15:17:24;26.80;1.00
25024;DHT22;13033;50.936;5.334;2022-09-21T15:19:50;26.50;1.00
25024;DHT22;13033;50.936;5.334;2022-09-21T15:22:20;26.60;1.00
25024;DHT22;13033;50.936;5.334;2022-09-21T15:24:54;26.90;1.00
25024;DHT22;13033;50.936;5.334;2022-09-21T15:27:25;27.00;1.00
25024;DHT22;13033;50.936;5.334;2022-09-21T15:29:54;27.10;1.00
25024;DHT22;13033;50.936;5.334;2022-09-21T15:32:40;26.40;1.00
25024;DHT22;13033;50.936;5.334;2022-09-21T15:35:18;24.90;1.00
25024;DHT22;13033;50.936;5.334;2022-09-21T15:37:44;24.20;1.00
25024;DHT22;13033;50.936;5.334;2022-09-21T15:40:18;23.50;2.90
25024;DHT22;13033;50.936;5.334;2022-09-21T15:45:29;24.60;1.00
25024;DHT22;13033;50.936;5.334;2022-09-21T15:47:58;24.10;6.70
25024;DHT22;13033;50.936;5.334;2022-09-21T15:50:25;23.40;39.20
25024;DHT22;13033;50.936;5.334;2022-09-21T15:52:59;22.40;99.90
25024;DHT22;13033;50.936;5.334;2022-09-21T15:55:29;21.70;99.90
25024;DHT22;13033;50.936;5.334;2022-09-21T15:57:56;22.70;99.90
25024;DHT22;13033;50.936;5.334;2022-09-21T16:00:25;24.20;99.90
25024;DHT22;13033;50.936;5.334;2022-09-21T16:03:17;25.90;30.10
25024;DHT22;13033;50.936;5.334;2022-09-21T16:05:51;26.60;1.00
25024;DHT22;13033;50.936;5.334;2022-09-21T16:08:34;27.30;1.00
25024;DHT22;13033;50.936;5.334;2022-09-21T16:11:12;27.80;1.00
25024;DHT22;13033;50.936;5.334;2022-09-21T16:13:38;27.90;1.00
25024;DHT22;13033;50.936;5.334;2022-09-21T16:16:22;27.90;1.00
25024;DHT22;13033;50.936;5.334;2022-09-21T16:18:50;27.60;1.00
25024;DHT22;13033;50.936;5.334;2022-09-21T16:21:28;28.00;1.00
25024;DHT22;13033;50.936;5.334;2022-09-21T16:24:06;26.10;1.00
25024;DHT22;13033;50.936;5.334;2022-09-21T16:26:36;26.60;1.00
25024;DHT22;13033;50.936;5.334;2022-09-21T16:29:17;26.40;1.00
25024;DHT22;13033;50.936;5.334;2022-09-21T16:31:44;26.30;1.00
25024;DHT22;13033;50.936;5.334;2022-09-21T16:34:28;26.30;1.00
25024;DHT22;13033;50.936;5.334;2022-09-21T16:36:57;26.20;1.00
25024;DHT22;13033;50.936;5.334;2022-09-21T16:39:23;26.00;1.00
25024;DHT22;13033;50.936;5.334;2022-09-21T16:41:54;25.10;1.00
25024;DHT22;13033;50.936;5.334;2022-09-21T16:44:21;24.30;1.00
25024;DHT22;13033;50.936;5.334;2022-09-21T16:46:53;23.10;1.00
25024;DHT22;13033;50.936;5.334;2022-09-21T16:49:20;22.10;99.90
25024;DHT22;13033;50.936;5.334;2022-09-21T16:51:48;21.60;99.90
25024;DHT22;13033;50.936;5.334;2022-09-21T16:54:15;21.10;56.20
25024;DHT22;13033;50.936;5.334;2022-09-21T16:56:41;20.70;99.90
25024;DHT22;13033;50.936;5.334;2022-09-21T16:59:14;20.40;99.90
25024;DHT22;13033;50.936;5.334;2022-09-21T17:01:41;20.20;1.00
25024;DHT22;13033;50.936;5.334;2022-09-21T17:04:08;19.80;1.00
25024;DHT22;13033;50.936;5.334;2022-09-21T17:06:38;19.60;89.10
25024;DHT22;13033;50.936;5.334;2022-09-21T17:09:18;19.50;1.00
25024;DHT22;13033;50.936;5.334;2022-09-21T17:11:45;19.40;39.20
25024;DHT22;13033;50.936;5.334;2022-09-21T17:14:11;19.20;51.70
25024;DHT22;13033;50.936;5.334;2022-09-21T17:16:42;19.00;99.90
25024;DHT22;13033;50.936;5.334;2022-09-21T17:19:08;19.00;1.00
25024;DHT22;13033;50.936;5.334;2022-09-21T17:21:34;18.80;99.90
25024;DHT22;13033;50.936;5.334;2022-09-21T17:24:00;18.50;2.70
25024;DHT22;13033;50.936;5.334;2022-09-21T17:26:26;18.10;1.00
25024;DHT22;13033;50.936;5.334;2022-09-21T17:28:52;17.90;1.00
25024;DHT22;13033;50.936;5.334;2022-09-21T17:31:21;17.80;11.00
25024;DHT22;13033;50.936;5.334;2022-09-21T17:33:48;17.70;99.90
25024;DHT22;13033;50.936;5.334;2022-09-21T17:36:16;17.60;1.00
25024;DHT22;13033;50.936;5.334;2022-09-21T17:38:42;17.60;99.90
25024;DHT22;13033;50.936;5.334;2022-09-21T17:44:02;17.50;99.90
25024;DHT22;13033;50.936;5.334;2022-09-21T17:46:46;17.30;1.00
25024;DHT22;13033;50.936;5.334;2022-09-21T17:49:13;17.00;99.90
25024;DHT22;13033;50.936;5.334;2022-09-21T17:51:39;16.90;99.90
25024;DHT22;13033;50.936;5.334;2022-09-21T17:54:24;16.70;99.90
25024;DHT22;13033;50.936;5.334;2022-09-21T17:56:57;16.70;99.90
25024;DHT22;13033;50.936;5.334;2022-09-21T17:59:33;16.60;99.90
25024;DHT22;13033;50.936;5.334;2022-09-21T18:02:00;16.50;99.90
25024;DHT22;13033;50.936;5.334;2022-09-21T18:04:30;16.50;99.90
25024;DHT22;13033;50.936;5.334;2022-09-21T18:06:58;16.40;99.90
25024;DHT22;13033;50.936;5.334;2022-09-21T18:09:24;16.10;99.90
25024;DHT22;13033;50.936;5.334;2022-09-21T18:21:21;16.00;1.00
25024;DHT22;13033;50.936;5.334;2022-09-21T18:26:34;15.80;1.00
25024;DHT22;13033;50.936;5.334;2022-09-21T18:29:00;15.70;1.00
25024;DHT22;13033;50.936;5.334;2022-09-21T18:31:50;15.60;1.00
25024;DHT22;13033;50.936;5.334;2022-09-21T18:42:27;15.30;1.00
25024;DHT22;13033;50.936;5.334;2022-09-21T18:45:15;15.20;1.00
25024;DHT22;13033;50.936;5.334;2022-09-21T18:48:05;15.10;1.00
25024;DHT22;13033;50.936;5.334;2022-09-21T18:53:45;15.20;1.00
25024;DHT22;13033;50.936;5.334;2022-09-21T18:56:12;15.20;1.00
25024;DHT22;13033;50.936;5.334;2022-09-21T18:58:38;15.20;1.00
25024;DHT22;13033;50.936;5.334;2022-09-21T19:01:05;15.20;1.00
25024;DHT22;13033;50.936;5.334;2022-09-21T19:03:31;15.10;1.00
25024;DHT22;13033;50.936;5.334;2022-09-21T19:09:08;14.70;1.00
25024;DHT22;13033;50.936;5.334;2022-09-21T19:25:14;14.60;1.00
25024;DHT22;13033;50.936;5.334;2022-09-21T19:27:56;14.50;1.00